Time;durP1;ratioP1;P1;durP2;ratioP2;P2;SDS_P1;SDS_P2;PMS_P1;PMS_P2;Temp;Humidity;BMP_temperature;BMP_pressure;BME280_temperature;BME280_humidity;BME280_pressure;Samples;Min_cycle;Max_cycle;Signal;HPM_P1;HPM_P2
2023/10/06 00:00:52;;;;;;;12.40;3.70;;;;;;;18.67;68.76;102501.13;4993669;28;20497;-45
2023/10/06 00:03:20;;;;;;;7.15;3.47;;;;;;;18.84;68.12;102496.84;4992918;28;20050;-48
2023/10/06 00:05:49;;;;;;;10.90;3.58;;;;;;;18.79;67.98;102507.38;4993587;28;20030;-45
2023/10/06 00:08:17;;;;;;;10.18;3.80;;;;;;;18.94;67.44;102498.66;4992807;28;20040;-45
2023/10/06 00:10:51;;;;;;;9.18;3.60;;;;;;;18.76;68.47;102504.72;4993217;28;20040;-47
2023/10/06 00:13:31;;;;;;;8.73;3.47;;;;;;;18.80;68.70;102495.03;4992660;28;20520;-46
2023/10/06 00:15:58;;;;;;;9.02;3.78;;;;;;;18.69;69.02;102496.75;4993245;28;20070;-46
2023/10/06 00:18:26;;;;;;;6.80;3.38;;;;;;;18.77;68.61;102493.28;4993115;28;20405;-45
2023/10/06 00:20:56;;;;;;;7.90;3.40;;;;;;;18.69;69.03;102499.38;4993941;28;20085;-41
2023/10/06 00:23:22;;;;;;;9.98;3.38;;;;;;;18.79;68.53;102487.97;4992591;28;20030;-44
2023/10/06 00:25:54;;;;;;;9.07;3.30;;;;;;;18.73;68.44;102483.56;4993019;28;20041;-46
2023/10/06 00:28:32;;;;;;;7.57;3.22;;;;;;;18.60;69.42;102487.88;4992794;28;20504;-44
2023/10/06 00:31:08;;;;;;;7.55;3.35;;;;;;;18.64;69.29;102486.16;4993535;28;20496;-44
2023/10/06 00:33:34;;;;;;;11.90;3.22;;;;;;;18.54;69.64;102497.53;4991844;28;20045;-47
2023/10/06 00:36:07;;;;;;;11.50;3.35;;;;;;;18.58;69.52;102499.34;4993149;28;20030;-44
2023/10/06 00:38:36;;;;;;;11.70;3.33;;;;;;;18.68;68.72;102494.97;4993913;28;20038;-45
2023/10/06 00:41:06;;;;;;;7.00;3.13;;;;;;;18.69;68.70;102492.34;4992861;28;20417;-46
2023/10/06 00:43:35;;;;;;;6.22;3.05;;;;;;;18.66;68.61;102487.06;4992934;28;20524;-47
2023/10/06 00:46:07;;;;;;;7.43;2.83;;;;;;;18.51;69.14;102481.63;4991741;28;20125;-47
2023/10/06 00:48:44;;;;;;;7.00;2.90;;;;;;;18.47;69.49;102496.59;4993253;28;20038;-44
2023/10/06 00:51:12;;;;;;;5.90;2.65;;;;;;;18.69;68.45;102486.19;4992409;28;20036;-47
2023/10/06 00:53:39;;;;;;;9.57;2.90;;;;;;;18.58;68.33;102468.53;4992944;28;20042;-47
2023/10/06 00:56:10;;;;;;;9.52;2.70;;;;;;;18.44;69.07;102478.06;4992360;28;20061;-48
2023/10/06 00:58:41;;;;;;;9.57;2.78;;;;;;;18.58;68.68;102473.81;4992938;28;20037;-44
2023/10/06 01:01:16;;;;;;;6.10;2.67;;;;;;;18.48;68.38;102473.72;4992162;28;20041;-46
2023/10/06 01:03:44;;;;;;;5.80;2.78;;;;;;;18.56;68.30;102472.00;4992495;28;20034;-49
2023/10/06 01:06:14;;;;;;;8.52;2.47;;;;;;;18.59;68.20;102478.22;4992441;28;20038;-45
2023/10/06 01:08:45;;;;;;;6.15;2.47;;;;;;;18.35;69.18;102479.78;4994145;28;20536;-45
2023/10/06 01:11:16;;;;;;;6.85;2.47;;;;;;;18.45;68.90;102471.03;4992612;28;20037;-43
2023/10/06 01:13:52;;;;;;;8.55;2.80;;;;;;;18.57;68.27;102465.88;4992973;28;20085;-45
2023/10/06 01:16:18;;;;;;;7.10;2.50;;;;;;;18.53;68.24;102464.94;4992434;28;20031;-46
2023/10/06 01:18:43;;;;;;;5.97;2.35;;;;;;;18.71;67.55;102465.94;4993340;28;20400;-43
2023/10/06 01:21:17;;;;;;;9.57;2.30;;;;;;;18.38;68.47;102467.47;4992242;28;20062;-44
2023/10/06 01:23:46;;;;;;;6.95;2.30;;;;;;;18.49;67.99;102455.22;4992220;28;20027;-44
2023/10/06 01:26:13;;;;;;;8.38;2.30;;;;;;;18.68;67.28;102460.63;4991679;28;20085;-43
2023/10/06 01:28:42;;;;;;;10.02;2.20;;;;;;;18.68;67.19;102450.94;4992396;28;20089;-43
2023/10/06 01:31:08;;;;;;;7.97;2.40;;;;;;;18.73;66.91;102453.59;4991958;28;20452;-46
2023/10/06 01:33:33;;;;;;;8.70;2.60;;;;;;;18.66;66.97;102443.91;4991972;28;20042;-45
2023/10/06 01:35:59;;;;;;;7.00;2.30;;;;;;;18.72;66.81;102449.22;4991961;28;20030;-48
2023/10/06 01:38:24;;;;;;;7.95;2.60;;;;;;;18.49;67.87;102446.41;4991691;28;20038;-43
2023/10/06 01:40:53;;;;;;;6.20;2.53;;;;;;;18.55;67.35;102449.13;4991828;28;20046;-45
2023/10/06 01:43:22;;;;;;;6.28;2.40;;;;;;;18.54;67.28;102447.34;4991172;28;20045;-44
2023/10/06 01:45:51;;;;;;;8.07;2.60;;;;;;;18.60;66.94;102453.53;4991871;28;20056;-45
2023/10/06 01:50:48;;;;;;;7.38;2.85;;;;;;;18.38;67.74;102449.00;4992110;28;20034;-44
2023/10/06 01:53:18;;;;;;;6.80;2.60;;;;;;;18.22;68.71;102457.69;4991056;28;20497;-45
2023/10/06 01:55:49;;;;;;;6.45;2.38;;;;;;;18.47;67.78;102448.19;4991714;28;20038;-46
2023/10/06 01:58:15;;;;;;;5.63;2.40;;;;;;;18.46;67.71;102446.41;4992019;28;20042;-44
2023/10/06 02:00:40;;;;;;;9.80;2.60;;;;;;;18.35;68.18;102446.34;4992168;28;20608;-43
2023/10/06 02:03:10;;;;;;;5.97;2.40;;;;;;;18.37;67.76;102441.94;4991880;28;20129;-44
2023/10/06 02:05:38;;;;;;;5.72;2.15;;;;;;;18.51;67.28;102447.31;4991849;28;20088;-43
2023/10/06 02:08:05;;;;;;;7.57;2.45;;;;;;;18.28;68.14;102449.81;4991040;28;20458;-44
2023/10/06 02:10:32;;;;;;;8.18;2.78;;;;;;;18.42;67.55;102442.84;4991437;28;20489;-43
2023/10/06 02:12:58;;;;;;;7.88;2.30;;;;;;;18.54;66.92;102447.34;4991534;28;20042;-44
2023/10/06 02:15:23;;;;;;;7.50;2.40;;;;;;;18.28;67.43;102452.44;4991125;28;20026;-44
2023/10/06 02:17:50;;;;;;;7.65;2.60;;;;;;;18.27;68.11;102450.69;4992391;28;20101;-44
2023/10/06 02:20:34;;;;;;;11.45;2.75;;;;;;;18.37;68.00;102446.34;4992507;28;20030;-47
2023/10/06 02:23:00;;;;;;;;;;;;;;;18.37;67.84;102449.84;4990788;28;20034;-44
2023/10/06 02:25:26;;;;;;;7.32;2.50;;;;;;;18.43;67.22;102446.38;4989562;28;20284;-47
2023/10/06 02:27:56;;;;;;;7.47;2.55;;;;;;;18.36;67.52;102442.81;4990441;28;20061;-43
2023/10/06 02:30:44;;;;;;;6.45;2.60;;;;;;;18.35;67.62;102441.06;4990519;28;20045;-45
2023/10/06 02:33:11;;;;;;;5.53;2.45;;;;;;;18.20;68.03;102451.50;4990169;28;20445;-45
2023/10/06 02:35:44;;;;;;;7.13;2.80;;;;;;;18.22;68.68;102447.13;4990907;28;20497;-46
2023/10/06 02:38:09;;;;;;;8.32;2.80;;;;;;;18.31;67.96;102439.25;4990333;28;20038;-47
2023/10/06 02:40:45;;;;;;;5.13;2.63;;;;;;;18.26;68.38;102433.06;4990627;28;20108;-47
2023/10/06 02:43:16;;;;;;;6.07;2.53;;;;;;;18.33;67.99;102420.78;4990181;28;20467;-47
2023/10/06 02:45:41;;;;;;;9.10;3.00;;;;;;;18.09;68.80;102429.44;4989230;28;20117;-43
2023/10/06 02:48:18;;;;;;;6.53;2.58;;;;;;;18.28;68.28;102436.63;4990461;28;20121;-43
2023/10/06 02:50:49;;;;;;;10.65;3.08;;;;;;;18.33;68.29;102426.06;4999322;28;20127;-44
2023/10/06 02:53:14;;;;;;;6.95;2.40;;;;;;;18.37;68.09;102426.09;4989886;28;20382;-45
2023/10/06 02:55:43;;;;;;;8.65;2.70;;;;;;;18.13;68.99;102425.94;4990258;28;20038;-44
2023/10/06 02:58:23;;;;;;;7.70;2.70;;;;;;;18.22;68.82;102423.38;4990300;28;20034;-44
2023/10/06 03:00:51;;;;;;;4.50;2.42;;;;;;;18.34;68.22;102417.28;4990752;28;20038;-44
2023/10/06 03:03:22;;;;;;;8.07;2.70;;;;;;;18.18;68.82;102401.34;4990358;28;20038;-44
2023/10/06 03:05:52;;;;;;;8.60;2.70;;;;;;;18.17;69.06;102401.34;4992309;28;20037;-46
2023/10/06 03:08:22;;;;;;;8.35;2.80;;;;;;;18.23;68.95;102404.91;4991861;28;20489;-50
2023/10/06 03:10:48;;;;;;;10.43;3.20;;;;;;;18.38;67.87;102396.19;4991008;28;20030;-44
2023/10/06 03:13:33;;;;;;;6.95;2.78;;;;;;;18.25;68.30;102389.94;4989677;28;20030;-48
2023/10/06 03:15:59;;;;;;;6.10;2.70;;;;;;;18.30;68.01;102389.09;4990820;28;20034;-44
2023/10/06 03:18:25;;;;;;;7.95;2.75;;;;;;;18.32;68.13;102393.50;4994223;28;20026;-45
2023/10/06 03:20:59;;;;;;;8.07;2.75;;;;;;;18.30;68.20;102386.47;4993536;28;20049;-49
2023/10/06 03:23:36;;;;;;;7.63;3.00;;;;;;;18.36;67.71;102383.88;4994051;28;20061;-45
2023/10/06 03:26:11;;;;;;;6.88;2.80;;;;;;;18.28;68.06;102378.53;4989852;28;20389;-50
2023/10/06 03:28:37;;;;;;;8.80;2.70;;;;;;;18.23;68.17;102386.44;4990006;28;20173;-45
2023/10/06 03:31:30;;;;;;;7.70;2.60;;;;;;;18.35;67.54;102387.38;4988142;28;20125;-46
2023/10/06 03:33:54;;;;;;;7.03;2.80;;;;;;;18.34;67.74;102386.50;4989855;28;20132;-45
2023/10/06 03:36:34;;;;;;;8.27;2.75;;;;;;;18.27;67.92;102397.88;4989677;28;20080;-42
2023/10/06 03:39:06;;;;;;;8.38;2.85;;;;;;;18.33;67.77;102394.38;4988812;28;20560;-45
2023/10/06 03:41:32;;;;;;;9.00;2.72;;;;;;;18.16;68.59;102389.03;4990165;28;20069;-45
2023/10/06 03:44:03;;;;;;;5.97;2.53;;;;;;;18.23;68.51;102397.00;4990150;28;20085;-45
2023/10/06 03:46:36;;;;;;;8.77;2.88;;;;;;;18.30;68.27;102392.59;4990370;28;20034;-43
2023/10/06 03:49:03;;;;;;;8.00;2.72;;;;;;;18.30;68.02;102378.56;4990139;28;20043;-45
2023/10/06 03:51:29;;;;;;;7.53;2.95;;;;;;;18.30;68.22;102381.19;4990749;28;20173;-44
2023/10/06 03:53:56;;;;;;;7.78;2.80;;;;;;;18.09;69.39;102384.56;4990439;28;20109;-46
2023/10/06 03:56:21;;;;;;;8.70;3.20;;;;;;;18.18;69.12;102381.97;4989671;28;20093;-47
2023/10/06 03:58:47;;;;;;;8.05;3.10;;;;;;;18.27;68.53;102389.06;4990565;28;20034;-44
2023/10/06 04:01:13;;;;;;;9.55;2.95;;;;;;;18.41;67.88;102387.41;4990822;28;20034;-45
2023/10/06 04:03:38;;;;;;;7.72;2.75;;;;;;;18.38;67.97;102369.78;4991071;28;20037;-43
2023/10/06 04:06:04;;;;;;;7.15;2.90;;;;;;;18.27;68.70;102373.22;4991286;28;20035;-51
2023/10/06 04:08:30;;;;;;;7.50;2.90;;;;;;;18.35;68.52;102366.25;4990054;28;20061;-43
2023/10/06 04:10:58;;;;;;;11.05;3.22;;;;;;;18.34;68.58;102356.56;4989807;28;20042;-45
2023/10/06 04:13:28;;;;;;;10.35;3.15;;;;;;;18.30;68.81;102353.00;4988918;28;20036;-44
2023/10/06 04:15:53;;;;;;;7.85;3.20;;;;;;;18.42;68.28;102353.06;4989703;28;20048;-45
2023/10/06 04:18:23;;;;;;;13.27;3.35;;;;;;;18.40;68.30;102352.19;4988106;28;20026;-47
2023/10/06 04:20:53;;;;;;;9.55;3.08;;;;;;;18.33;68.38;102352.16;4989793;28;20042;-46
2023/10/06 04:23:22;;;;;;;6.40;3.08;;;;;;;18.47;68.17;102355.75;4992474;28;20043;-47
2023/10/06 04:25:49;;;;;;;8.68;2.88;;;;;;;18.42;68.34;102347.78;4993588;28;20035;-46
2023/10/06 04:28:16;;;;;;;7.50;3.20;;;;;;;18.40;68.53;102343.38;4992630;28;20050;-45
2023/10/06 04:30:45;;;;;;;10.95;3.20;;;;;;;18.38;68.81;102345.13;4993022;28;20065;-46
2023/10/06 04:33:13;;;;;;;8.18;3.10;;;;;;;18.50;68.37;102342.53;4992254;28;20034;-45
2023/10/06 04:35:52;;;;;;;8.35;3.10;;;;;;;18.42;68.59;102344.28;4993173;28;20038;-47
2023/10/06 04:38:19;;;;;;;9.45;3.67;;;;;;;18.25;68.88;102345.06;4992826;28;20125;-44
2023/10/06 04:40:46;;;;;;;9.45;3.30;;;;;;;18.09;70.11;102345.88;4993017;28;20106;-46
2023/10/06 04:43:13;;;;;;;8.95;3.47;;;;;;;18.55;68.19;102349.63;4992380;28;20624;-47
2023/10/06 04:45:38;;;;;;;10.38;3.15;;;;;;;18.53;68.29;102347.84;4992969;28;20117;-44
2023/10/06 04:48:07;;;;;;;10.60;3.50;;;;;;;18.39;68.70;102339.84;4992742;28;20084;-46
2023/10/06 04:50:36;;;;;;;7.55;3.20;;;;;;;18.45;68.70;102341.63;4992552;28;20065;-44
2023/10/06 04:53:05;;;;;;;8.73;3.30;;;;;;;18.59;67.65;102339.97;4991904;28;20043;-46
2023/10/06 04:55:31;;;;;;;10.10;3.15;;;;;;;18.62;67.79;102339.97;4992617;28;20062;-47
2023/10/06 04:57:57;;;;;;;7.00;3.00;;;;;;;18.60;67.81;102339.97;4992688;28;20405;-44
2023/10/06 05:00:27;;;;;;;7.68;3.08;;;;;;;18.61;67.63;102339.09;4992315;28;20030;-45
2023/10/06 05:02:52;;;;;;;7.03;3.30;;;;;;;18.41;68.38;102345.16;4992426;28;20031;-43
2023/10/06 05:05:20;;;;;;;9.55;3.47;;;;;;;18.36;69.09;102338.97;4991657;28;20040;-42
2023/10/06 05:07:48;;;;;;;8.57;3.50;;;;;;;18.42;68.54;102353.06;4992238;28;20041;-45
2023/10/06 05:10:16;;;;;;;9.90;3.40;;;;;;;18.47;68.43;102346.06;4992213;28;20038;-46
2023/10/06 05:12:42;;;;;;;7.22;3.53;;;;;;;18.41;68.71;102340.75;4992261;28;20508;-48
2023/10/06 05:15:09;;;;;;;7.93;3.30;;;;;;;18.40;68.49;102338.09;4991933;28;20453;-44
2023/10/06 05:17:36;;;;;;;9.23;3.50;;;;;;;18.28;69.23;102340.69;4992350;28;20113;-47
2023/10/06 05:20:02;;;;;;;7.65;3.40;;;;;;;18.35;68.88;102339.84;4991617;28;20045;-46
2023/10/06 05:22:28;;;;;;;9.35;3.50;;;;;;;18.44;68.52;102338.13;4991729;28;20497;-46
2023/10/06 05:24:53;;;;;;;9.50;3.67;;;;;;;18.22;69.53;102326.59;4991431;28;20038;-49
2023/10/06 05:27:19;;;;;;;9.35;3.97;;;;;;;18.28;69.22;102335.41;4990452;28;20043;-45
2023/10/06 05:29:46;;;;;;;13.93;4.00;;;;;;;18.31;68.90;102328.38;4992036;28;20138;-46
2023/10/06 05:32:11;;;;;;;7.90;3.63;;;;;;;18.44;68.69;102338.13;4991102;28;20505;-47
2023/10/06 05:34:40;;;;;;;9.13;3.53;;;;;;;18.27;69.21;102334.53;4991941;28;20049;-44
2023/10/06 05:37:12;;;;;;;8.15;3.65;;;;;;;18.44;68.85;102347.78;4991496;28;20034;-48
2023/10/06 05:39:40;;;;;;;10.32;3.90;;;;;;;18.38;68.66;102347.75;4992612;28;20114;-44
2023/10/06 05:42:08;;;;;;;12.13;3.97;;;;;;;18.22;69.51;102352.97;4991488;28;20038;-45
2023/10/06 05:44:36;;;;;;;9.63;3.88;;;;;;;18.24;69.75;102358.25;4992079;28;20468;-45
2023/10/06 05:47:01;;;;;;;8.50;3.85;;;;;;;18.46;68.59;102359.25;4991232;28;20030;-44
2023/10/06 05:49:29;;;;;;;9.35;4.32;;;;;;;18.61;68.03;102347.00;4991702;28;20092;-46
2023/10/06 05:51:54;;;;;;;9.20;3.80;;;;;;;18.55;68.15;102343.47;4991494;28;20038;-43
2023/10/06 05:54:21;;;;;;;9.45;3.95;;;;;;;18.54;68.47;102354.91;4990995;28;20030;-46
2023/10/06 05:56:53;;;;;;;12.52;4.07;;;;;;;18.39;68.91;102350.41;4991278;28;20405;-50
2023/10/06 05:59:22;;;;;;;10.07;4.30;;;;;;;18.43;69.05;102352.19;4990703;28;20034;-46
2023/10/06 06:01:56;;;;;;;10.63;4.22;;;;;;;18.28;69.80;102349.50;4991127;28;20038;-48
2023/10/06 06:04:27;;;;;;;12.77;4.10;;;;;;;18.34;69.67;102341.59;4991108;28;20030;-45
2023/10/06 06:06:57;;;;;;;9.90;4.13;;;;;;;18.48;69.27;102344.31;4993325;28;20519;-49
2023/10/06 06:09:27;;;;;;;11.63;4.20;;;;;;;18.43;69.30;102335.47;4994032;28;20038;-45
2023/10/06 06:11:52;;;;;;;9.30;4.25;;;;;;;18.45;69.32;102329.31;4992591;28;20035;-48
2023/10/06 06:14:21;;;;;;;9.68;4.20;;;;;;;18.58;68.50;102331.16;4990795;28;20053;-46
2023/10/06 06:16:50;;;;;;;8.15;3.80;;;;;;;18.66;68.33;102333.84;4990989;28;20037;-48
2023/10/06 06:19:17;;;;;;;9.07;4.18;;;;;;;18.53;68.97;102327.59;4990528;28;20044;-44
2023/10/06 06:21:44;;;;;;;9.77;3.88;;;;;;;18.77;68.03;102325.94;4991656;28;20026;-47
2023/10/06 06:24:10;;;;;;;9.45;3.72;;;;;;;18.21;69.81;102326.56;4990859;28;20054;-46
2023/10/06 06:26:38;;;;;;;8.98;3.67;;;;;;;18.59;69.01;102327.66;4991102;28;20846;-45
2023/10/06 06:29:05;;;;;;;14.40;4.13;;;;;;;18.79;67.88;102324.16;4990572;28;20038;-45
2023/10/06 06:31:34;;;;;;;12.00;4.20;;;;;;;18.70;68.33;102326.78;4990648;28;20035;-48
2023/10/06 06:34:04;;;;;;;8.60;3.90;;;;;;;18.69;68.47;102325.03;4990586;28;20039;-48
2023/10/06 06:36:33;;;;;;;11.50;4.30;;;;;;;18.78;68.60;102327.72;4990352;28;20039;-44
2023/10/06 06:38:59;;;;;;;10.73;4.10;;;;;;;18.76;68.73;102334.75;4990461;28;20044;-46
2023/10/06 06:41:25;;;;;;;9.73;4.45;;;;;;;18.71;68.64;102340.03;4989914;28;20096;-43
2023/10/06 06:43:58;;;;;;;9.80;4.00;;;;;;;18.92;67.89;102337.41;4989717;28;20046;-44
2023/10/06 06:46:24;;;;;;;11.75;4.40;;;;;;;18.69;68.95;102338.25;4989868;28;20038;-48
2023/10/06 06:48:49;;;;;;;11.50;4.35;;;;;;;18.90;68.35;102327.75;4990377;28;20037;-45
2023/10/06 06:51:14;;;;;;;9.57;3.95;;;;;;;19.21;67.62;102342.75;4990074;28;20042;-48
2023/10/06 06:53:40;;;;;;;11.55;4.28;;;;;;;19.44;66.43;102341.03;4990515;28;20057;-44
2023/10/06 06:56:06;;;;;;;7.50;3.85;;;;;;;19.81;65.16;102336.63;4989788;28;20065;-43
2023/10/06 06:58:32;;;;;;;9.98;4.45;;;;;;;19.77;65.18;102344.53;4988874;28;20030;-45
2023/10/06 07:00:58;;;;;;;9.90;4.32;;;;;;;19.89;64.08;102339.22;4990268;28;20133;-46
2023/10/06 07:03:25;;;;;;;8.95;4.20;;;;;;;19.71;65.08;102344.56;4989451;28;20062;-44
2023/10/06 07:05:50;;;;;;;13.23;4.15;;;;;;;19.82;64.72;102346.28;4990255;28;20038;-46
2023/10/06 07:08:16;;;;;;;10.65;4.50;;;;;;;19.68;65.32;102334.88;4989552;28;20042;-45
2023/10/06 07:10:46;;;;;;;11.35;4.30;;;;;;;20.06;63.89;102340.09;4990037;28;20058;-47
2023/10/06 07:13:12;;;;;;;10.20;4.38;;;;;;;20.00;64.09;102334.81;4989452;28;20042;-48
2023/10/06 07:15:37;;;;;;;8.77;4.53;;;;;;;20.10;64.27;102343.63;4990058;28;20378;-44
2023/10/06 07:18:03;;;;;;;11.00;4.20;;;;;;;20.31;63.39;102342.69;4989585;28;20039;-49
2023/10/06 07:20:30;;;;;;;12.18;4.32;;;;;;;19.71;65.27;102352.50;4989969;28;20027;-48
2023/10/06 07:22:57;;;;;;;12.20;4.40;;;;;;;19.86;64.62;102355.13;4989498;28;20030;-48
2023/10/06 07:25:24;;;;;;;8.85;4.00;;;;;;;20.03;64.79;102348.03;4989315;28;20057;-44
2023/10/06 07:27:53;;;;;;;13.32;4.28;;;;;;;20.11;63.68;102343.63;4989722;28;20049;-44
2023/10/06 07:30:22;;;;;;;10.82;4.40;;;;;;;19.87;64.70;102350.72;4989018;28;20039;-43
2023/10/06 07:32:48;;;;;;;9.13;3.90;;;;;;;20.16;63.93;102348.88;4989785;28;20038;-47
2023/10/06 07:35:18;;;;;;;8.45;4.00;;;;;;;20.15;64.73;102352.41;4989222;28;20027;-45
2023/10/06 07:37:45;;;;;;;11.90;4.00;;;;;;;20.30;64.03;102356.81;4989469;28;20037;-50
2023/10/06 07:40:18;;;;;;;9.60;4.03;;;;;;;20.50;63.51;102365.56;4989052;28;21458;-44
2023/10/06 07:42:46;;;;;;;8.48;3.83;;;;;;;20.84;62.34;102361.91;4989522;28;20030;-47
2023/10/06 07:45:12;;;;;;;10.40;3.92;;;;;;;20.42;63.62;102362.09;4989764;28;20038;-45
2023/10/06 07:47:39;;;;;;;9.15;3.70;;;;;;;20.76;63.09;102365.47;4989808;28;20037;-46
2023/10/06 07:50:05;;;;;;;7.75;3.78;;;;;;;20.50;63.13;102370.88;4989578;28;20035;-45
2023/10/06 07:52:32;;;;;;;7.03;3.58;;;;;;;20.62;63.51;102374.34;4989874;28;20049;-44
2023/10/06 07:54:58;;;;;;;10.18;3.70;;;;;;;20.77;63.25;102378.72;4990422;28;20039;-47
2023/10/06 07:57:24;;;;;;;9.90;4.07;;;;;;;20.38;64.32;102370.91;4992748;28;20049;-45
2023/10/06 07:59:49;;;;;;;15.63;3.97;;;;;;;20.39;64.57;102368.28;4993370;28;20045;-44
2023/10/06 08:02:14;;;;;;;8.30;3.85;;;;;;;20.59;64.06;102369.09;4992382;28;20041;-45
2023/10/06 08:04:40;;;;;;;9.32;3.92;;;;;;;20.81;63.25;102369.84;4993589;28;20513;-44
2023/10/06 08:07:05;;;;;;;14.25;4.03;;;;;;;20.25;65.35;102372.69;4992958;28;20129;-43
2023/10/06 08:09:32;;;;;;;11.13;4.45;;;;;;;20.70;64.02;102379.63;5008429;28;20117;-45
2023/10/06 08:11:58;;;;;;;12.00;4.03;;;;;;;20.84;63.61;102384.88;4994392;28;20030;-45
2023/10/06 08:14:24;;;;;;;12.20;4.13;;;;;;;20.61;64.37;102392.94;4994277;28;20034;-44
2023/10/06 08:16:50;;;;;;;11.50;4.07;;;;;;;20.40;65.26;102388.56;4993770;28;20050;-45
2023/10/06 08:19:16;;;;;;;12.05;3.90;;;;;;;20.74;63.93;102380.50;4993561;28;20034;-44
2023/10/06 08:21:42;;;;;;;13.55;4.43;;;;;;;20.95;63.44;102391.00;4993000;28;20038;-46
2023/10/06 08:24:08;;;;;;;9.25;3.55;;;;;;;20.96;64.00;102398.06;4992861;28;20066;-52
2023/10/06 08:26:36;;;;;;;11.20;3.42;;;;;;;20.78;64.49;102385.78;4993480;28;20034;-46
2023/10/06 08:29:05;;;;;;;12.90;3.60;;;;;;;20.98;63.67;102391.00;4993273;28;20065;-44
2023/10/06 08:31:30;;;;;;;10.50;3.58;;;;;;;21.24;63.26;102386.41;4993995;28;20058;-44
2023/10/06 08:34:01;;;;;;;10.93;3.75;;;;;;;21.32;63.14;102376.66;4992381;28;20057;-48
2023/10/06 08:36:26;;;;;;;9.20;3.85;;;;;;;21.28;63.01;102380.22;4993098;28;20037;-44
2023/10/06 08:38:52;;;;;;;11.27;3.60;;;;;;;21.46;62.77;102387.16;4993791;28;20034;-46
2023/10/06 08:41:26;;;;;;;10.13;3.70;;;;;;;21.30;62.99;102397.00;4992909;28;20049;-45
2023/10/06 08:43:53;;;;;;;12.70;3.78;;;;;;;21.24;63.51;102394.38;4993680;28;20042;-44
2023/10/06 08:46:19;;;;;;;14.70;3.97;;;;;;;21.51;63.08;102405.69;4992412;28;20039;-49
2023/10/06 08:48:46;;;;;;;9.10;3.10;;;;;;;21.41;63.00;102397.78;4993471;28;20535;-46
2023/10/06 08:51:14;;;;;;;11.60;3.75;;;;;;;21.51;62.30;102390.66;4992039;28;20034;-48
2023/10/06 08:53:40;;;;;;;13.77;3.40;;;;;;;21.30;64.16;102386.38;4992185;28;20460;-46
2023/10/06 08:56:05;;;;;;;8.63;3.65;;;;;;;21.62;63.39;102380.84;4991959;28;20035;-44
2023/10/06 08:58:31;;;;;;;8.27;3.60;;;;;;;22.03;62.22;102393.75;4992396;28;20042;-46
2023/10/06 09:00:58;;;;;;;8.13;3.42;;;;;;;21.57;63.29;102389.72;4992164;28;20034;-45
2023/10/06 09:03:23;;;;;;;10.45;2.97;;;;;;;21.57;63.83;102387.94;4991506;28;20037;-46
2023/10/06 09:05:50;;;;;;;7.15;3.50;;;;;;;21.58;63.43;102386.19;4992326;28;20038;-46
2023/10/06 09:08:17;;;;;;;12.02;3.47;;;;;;;21.71;63.04;102394.00;4990997;28;20038;-45
2023/10/06 09:10:48;;;;;;;10.20;3.15;;;;;;;21.84;62.94;102392.13;4992115;28;20035;-45
2023/10/06 09:13:17;;;;;;;10.40;3.20;;;;;;;21.92;62.03;102390.28;4991731;28;20582;-44
2023/10/06 09:16:03;;;;;;;8.73;3.20;;;;;;;22.07;62.18;102395.50;4992059;28;20038;-48
2023/10/06 09:18:29;;;;;;;10.48;3.13;;;;;;;22.29;60.58;102395.25;4991514;28;20457;-49
2023/10/06 09:21:09;;;;;;;9.15;3.20;;;;;;;21.76;62.83;102399.31;4991850;28;20038;-47
2023/10/06 09:23:36;;;;;;;11.05;3.05;;;;;;;22.27;62.23;102389.94;4991685;28;20038;-45
2023/10/06 09:26:03;;;;;;;9.07;3.40;;;;;;;22.19;62.03;102384.75;4991470;28;20049;-47
2023/10/06 09:28:30;;;;;;;10.63;3.15;;;;;;;22.34;61.39;102380.13;4991887;28;20034;-47
2023/10/06 09:30:58;;;;;;;9.77;3.33;;;;;;;22.42;61.05;102381.81;4991412;28;20050;-46
2023/10/06 09:33:26;;;;;;;8.48;3.20;;;;;;;22.06;61.85;102376.91;4992834;28;20034;-45
2023/10/06 09:36:11;;;;;;;8.88;3.05;;;;;;;21.95;62.85;102379.69;4992715;28;20038;-43
2023/10/06 09:38:38;;;;;;;9.80;3.10;;;;;;;22.24;62.25;102376.72;4992188;28;20054;-44
2023/10/06 09:41:09;;;;;;;8.00;3.13;;;;;;;22.60;61.03;102368.31;4988580;28;20070;-43
2023/10/06 09:43:36;;;;;;;9.45;3.20;;;;;;;22.58;61.60;102372.75;4991630;28;20105;-45
2023/10/06 09:46:06;;;;;;;8.00;3.22;;;;;;;22.40;61.41;102370.31;4991394;28;20041;-46
2023/10/06 09:48:35;;;;;;;10.88;3.03;;;;;;;22.38;61.76;102373.91;4991738;28;20117;-46
2023/10/06 09:51:07;;;;;;;15.13;3.40;;;;;;;22.61;60.28;102386.03;4991820;28;20034;-46
2023/10/06 09:53:43;;;;;;;9.88;3.40;;;;;;;21.97;63.80;102396.47;4991375;28;20034;-45
2023/10/06 09:56:12;;;;;;;9.68;3.17;;;;;;;22.45;63.01;102389.75;4991614;28;20100;-44
2023/10/06 09:58:40;;;;;;;9.68;3.20;;;;;;;22.30;63.59;102389.06;4992181;28;20489;-44
2023/10/06 10:01:06;;;;;;;11.30;3.33;;;;;;;22.24;62.77;102382.91;4990954;28;20042;-45
2023/10/06 10:03:35;;;;;;;12.57;3.40;;;;;;;22.64;61.97;102377.13;4991275;28;20030;-44
2023/10/06 10:06:04;;;;;;;12.52;3.20;;;;;;;22.89;61.49;102378.59;4991304;28;20039;-43
2023/10/06 10:08:32;;;;;;;11.30;3.17;;;;;;;22.96;60.93;102377.59;4991269;28;20034;-44
2023/10/06 10:11:01;;;;;;;16.05;3.45;;;;;;;23.26;59.77;102388.69;4991182;28;20046;-45
2023/10/06 10:13:35;;;;;;;14.93;3.38;;;;;;;22.44;61.95;102380.03;4990744;28;20489;-44
2023/10/06 10:16:25;;;;;;;12.30;3.17;;;;;;;22.94;59.97;102374.06;4991707;28;20126;-44
2023/10/06 10:19:07;;;;;;;7.47;2.65;;;;;;;22.96;60.62;102382.03;4990243;28;20129;-43
2023/10/06 10:21:34;;;;;;;10.00;3.00;;;;;;;22.99;60.65;102384.69;4990581;28;20042;-47
2023/10/06 10:24:09;;;;;;;8.40;2.95;;;;;;;22.65;60.95;102379.75;4990845;28;20038;-46
2023/10/06 10:26:39;;;;;;;12.23;3.10;;;;;;;22.94;60.51;102378.50;4990565;28;20530;-47
2023/10/06 10:29:11;;;;;;;16.33;3.30;;;;;;;23.04;59.87;102377.50;4990242;28;20042;-43
2023/10/06 10:31:42;;;;;;;10.63;3.17;;;;;;;22.42;62.36;102370.31;4989539;28;20439;-45
2023/10/06 10:34:15;;;;;;;13.20;3.17;;;;;;;22.65;62.00;102379.75;4989040;28;20375;-44
2023/10/06 10:36:41;;;;;;;15.67;3.27;;;;;;;22.51;62.16;102379.03;4990225;28;20037;-45
2023/10/06 10:39:16;;;;;;;12.93;3.05;;;;;;;22.40;62.89;102380.06;4990261;28;20290;-44
2023/10/06 10:41:42;;;;;;;9.98;2.88;;;;;;;22.54;62.90;102379.03;4990295;28;20038;-50
2023/10/06 10:44:14;;;;;;;11.35;3.10;;;;;;;23.03;61.00;102389.91;4990245;28;20049;-45
2023/10/06 10:46:48;;;;;;;10.80;3.10;;;;;;;23.09;60.75;102370.31;4990256;28;20030;-44
2023/10/06 10:49:18;;;;;;;10.63;3.00;;;;;;;22.81;61.29;102375.13;4990508;28;20037;-47
2023/10/06 10:51:57;;;;;;;11.95;3.40;;;;;;;22.85;62.10;102368.91;4990408;28;20112;-46
2023/10/06 10:54:26;;;;;;;10.05;3.00;;;;;;;22.89;62.05;102378.59;4990139;28;20476;-44
2023/10/06 10:56:53;;;;;;;10.55;3.22;;;;;;;22.97;61.43;102365.19;4989077;28;20492;-45
2023/10/06 10:59:20;;;;;;;11.18;3.20;;;;;;;23.02;60.82;102364.22;4990224;28;20046;-45
2023/10/06 11:01:51;;;;;;;9.93;2.97;;;;;;;23.07;60.09;102358.81;4990228;28;20368;-47
2023/10/06 11:06:55;;;;;;;11.43;3.10;;;;;;;22.94;61.18;102358.13;4989966;28;20121;-46
2023/10/06 11:09:41;;;;;;;12.27;3.08;;;;;;;22.42;63.59;102363.22;4989943;28;20034;-44
2023/10/06 11:12:15;;;;;;;12.10;3.20;;;;;;;22.70;62.17;102361.09;4989076;28;20034;-43
2023/10/06 11:14:41;;;;;;;12.20;3.10;;;;;;;22.76;62.96;102360.16;4990293;28;20073;-47
2023/10/06 11:17:07;;;;;;;9.77;2.80;;;;;;;23.17;61.50;102362.25;4990241;28;20113;-46
2023/10/06 11:19:33;;;;;;;12.13;3.03;;;;;;;23.15;61.91;102366.69;4990618;28;20600;-44
2023/10/06 11:22:13;;;;;;;10.57;3.25;;;;;;;22.90;61.10;102360.84;4990222;28;20042;-42
2023/10/06 11:24:40;;;;;;;11.15;3.17;;;;;;;23.28;60.39;102357.63;4989069;28;20121;-44
2023/10/06 11:27:12;;;;;;;12.48;2.95;;;;;;;23.43;60.87;102368.00;4990112;28;20037;-44
2023/10/06 11:29:37;;;;;;;12.98;3.17;;;;;;;23.45;59.75;102356.44;4990903;28;20045;-48
2023/10/06 11:32:02;;;;;;;11.40;3.55;;;;;;;23.52;60.15;102357.25;4993729;28;20401;-43
2023/10/06 11:34:28;;;;;;;11.65;3.13;;;;;;;22.99;61.86;102355.41;4994140;28;20054;-47